createdAt,value
2019-01-16T00:00:22.398Z,7.83
2019-01-16T00:01:32.286Z,7.83
2019-01-16T00:02:42.362Z,7.86
2019-01-16T00:03:52.430Z,7.8
2019-01-16T00:05:02.496Z,7.91
2019-01-16T00:06:12.635Z,7.88
2019-01-16T00:07:22.709Z,7.83
2019-01-16T00:08:32.915Z,7.83
2019-01-16T00:09:42.985Z,7.92
2019-01-16T00:10:53.062Z,7.85
2019-01-16T00:12:05.739Z,7.85
2019-01-16T00:13:15.270Z,7.89
2019-01-16T00:14:25.480Z,7.85
2019-01-16T00:15:35.579Z,7.88
2019-01-16T00:16:45.400Z,7.89
2019-01-16T00:17:55.470Z,7.89
2019-01-16T00:19:07.757Z,7.88
2019-01-16T00:20:18.075Z,7.89
2019-01-16T00:21:28.112Z,7.92
2019-01-16T00:22:38.173Z,7.89
2019-01-16T00:23:48.354Z,7.85
2019-01-16T00:24:58.400Z,7.83
2019-01-16T00:26:08.955Z,7.91
2019-01-16T00:27:19.011Z,7.89
2019-01-16T00:28:28.588Z,7.88
2019-01-16T00:29:38.650Z,7.85
2019-01-16T00:30:48.482Z,7.85
2019-01-16T00:31:58.605Z,7.85
2019-01-16T00:33:10.597Z,7.82
2019-01-16T00:34:20.667Z,7.85
2019-01-16T00:35:30.269Z,7.83
2019-01-16T00:36:40.077Z,7.8
2019-01-16T00:37:50.185Z,7.95
2019-01-16T00:38:59.983Z,7.86
2019-01-16T00:40:10.029Z,7.92
2019-01-16T00:41:20.096Z,7.93
2019-01-16T00:42:30.139Z,7.98
2019-01-16T00:43:40.261Z,7.91
2019-01-16T00:44:50.389Z,7.91
2019-01-16T00:46:00.440Z,7.88
2019-01-16T00:47:10.513Z,7.88
2019-01-16T00:48:27.054Z,7.92
2019-01-16T00:49:37.242Z,7.96
2019-01-16T00:50:47.317Z,7.88
2019-01-16T00:51:57.389Z,7.96
2019-01-16T00:53:07.228Z,7.99
2019-01-16T00:54:17.294Z,7.91
2019-01-16T00:55:27.132Z,8.01
2019-01-16T00:56:37.205Z,7.98
2019-01-16T00:57:47.732Z,8.01
2019-01-16T00:58:58.020Z,7.93
2019-01-16T01:00:12.585Z,7.93
2019-01-16T01:01:22.926Z,7.92
2019-01-16T01:02:33.063Z,7.93
2019-01-16T01:03:43.151Z,7.93
2019-01-16T01:04:53.240Z,7.99
2019-01-16T01:06:05.533Z,8.03
2019-01-16T01:07:15.354Z,7.95
2019-01-16T01:08:25.478Z,7.99
2019-01-16T01:09:35.782Z,8.01
2019-01-16T01:10:45.346Z,7.96
2019-01-16T01:11:55.414Z,8.07
2019-01-16T01:13:05.984Z,8.04
2019-01-16T01:14:16.037Z,8.01
2019-01-16T01:15:26.123Z,8.03
2019-01-16T01:16:35.915Z,8.03
2019-01-16T01:17:45.982Z,8.03
2019-01-16T01:18:56.048Z,8.07
2019-01-16T01:20:06.563Z,8.07
2019-01-16T01:21:16.371Z,8.03
2019-01-16T01:22:26.185Z,7.99
2019-01-16T01:23:36.237Z,8.09
2019-01-16T01:24:46.406Z,8.11
2019-01-16T01:25:56.261Z,8.06
2019-01-16T01:27:06.357Z,8.11
2019-01-16T01:28:16.425Z,8.14
2019-01-16T01:29:26.528Z,8.17
2019-01-16T01:30:36.904Z,8.19
2019-01-16T01:31:47.429Z,8.21
2019-01-16T01:32:57.228Z,8.16
2019-01-16T01:34:06.773Z,8.14
2019-01-16T01:35:16.863Z,8.16
2019-01-16T01:36:27.008Z,8.21
2019-01-16T01:37:37.076Z,8.16
2019-01-16T01:38:47.131Z,8.17
2019-01-16T01:39:57.181Z,8.19
2019-01-16T01:41:07.039Z,8.21
2019-01-16T01:42:17.167Z,8.32
2019-01-16T01:43:27.295Z,8.31
2019-01-16T01:44:37.353Z,8.32
2019-01-16T01:45:47.427Z,8.36
2019-01-16T01:46:57.508Z,8.43
2019-01-16T01:48:08.372Z,8.42
2019-01-16T01:49:18.195Z,8.42
2019-01-16T01:50:27.730Z,8.5
2019-01-16T01:51:38.294Z,8.47
2019-01-16T01:52:48.354Z,8.53
2019-01-16T01:53:58.165Z,8.46
2019-01-16T01:55:08.490Z,8.46
2019-01-16T01:56:18.567Z,8.46
2019-01-16T01:57:28.687Z,8.58
2019-01-16T01:58:39.014Z,8.46
2019-01-16T01:59:49.126Z,8.6
2019-01-16T02:00:59.206Z,8.52
2019-01-16T02:02:09.280Z,8.5
2019-01-16T02:03:19.096Z,8.53
2019-01-16T02:04:28.911Z,8.53
2019-01-16T02:05:38.955Z,8.53
2019-01-16T02:06:48.529Z,8.61
2019-01-16T02:07:59.622Z,8.6
2019-01-16T02:09:09.695Z,8.57
2019-01-16T02:10:19.516Z,8.53
2019-01-16T02:11:29.585Z,8.53
2019-01-16T02:12:39.641Z,8.54
2019-01-16T02:13:49.724Z,8.58
2019-01-16T02:15:00.056Z,8.58
2019-01-16T02:16:10.155Z,8.64
2019-01-16T02:17:20.234Z,8.57
2019-01-16T02:18:30.283Z,8.64
2019-01-16T02:19:40.089Z,8.65
2019-01-16T02:20:50.159Z,8.6
2019-01-16T02:22:00.322Z,8.6
2019-01-16T02:23:10.742Z,8.68
2019-01-16T02:24:20.842Z,8.57
2019-01-16T02:25:30.642Z,8.57
2019-01-16T02:26:40.706Z,8.64
2019-01-16T02:27:50.763Z,8.6
2019-01-16T02:29:03.211Z,8.58
2019-01-16T02:30:13.297Z,8.58
2019-01-16T02:31:23.118Z,8.69
2019-01-16T02:32:33.418Z,8.68
2019-01-16T02:33:43.506Z,8.62
2019-01-16T02:34:53.576Z,8.65
2019-01-16T02:36:03.456Z,8.64
2019-01-16T02:37:13.509Z,8.72
2019-01-16T02:38:23.190Z,8.68
2019-01-16T02:39:33.008Z,8.54
2019-01-16T02:40:43.096Z,8.57
2019-01-16T02:41:52.917Z,8.68
2019-01-16T02:43:03.058Z,8.67
2019-01-16T02:44:13.126Z,8.67
2019-01-16T02:45:23.180Z,8.54
2019-01-16T02:46:33.237Z,8.57
2019-01-16T02:47:42.795Z,8.6
2019-01-16T02:49:00.645Z,8.6
2019-01-16T02:50:10.715Z,8.68
2019-01-16T02:51:20.794Z,8.62
2019-01-16T02:52:30.641Z,8.57
2019-01-16T02:53:40.824Z,8.62
2019-01-16T02:54:50.881Z,8.62
2019-01-16T02:56:02.577Z,8.53
2019-01-16T02:57:12.401Z,8.54
2019-01-16T02:58:22.625Z,8.64
2019-01-16T02:59:32.756Z,8.65
2019-01-16T03:00:42.825Z,8.64
2019-01-16T03:01:52.897Z,8.57
2019-01-16T03:03:03.013Z,8.64
2019-01-16T03:34:45.085Z,7.19
2019-01-16T03:35:55.160Z,7.09
2019-01-16T03:37:05.211Z,7.11
2019-01-16T03:38:14.784Z,7.15
2019-01-16T03:39:24.578Z,7.23
2019-01-16T03:40:34.637Z,7.3
2019-01-16T03:41:44.699Z,7.37
2019-01-16T03:42:54.264Z,7.33
2019-01-16T03:44:04.072Z,7.54
2019-01-16T03:45:13.889Z,7.59
2019-01-16T03:46:24.014Z,7.74
2019-01-16T03:47:33.820Z,7.85
2019-01-16T03:48:43.631Z,7.89
2019-01-16T03:49:53.710Z,7.92
2019-01-16T03:51:04.000Z,8.06
2019-01-16T03:52:13.816Z,8.13
2019-01-16T03:53:23.887Z,8.19
2019-01-16T03:54:33.954Z,8.17
2019-01-16T03:55:44.093Z,8.28
2019-01-16T03:56:54.405Z,8.26
2019-01-16T03:58:04.584Z,8.5
2019-01-16T03:59:14.658Z,8.43
2019-01-16T04:00:24.728Z,8.5
2019-01-16T04:01:34.786Z,8.44
2019-01-16T04:02:44.876Z,8.58
2019-01-16T04:03:55.271Z,8.57
2019-01-16T04:05:06.637Z,8.44
2019-01-16T04:06:16.454Z,8.61
2019-01-16T04:07:26.993Z,8.6
2019-01-16T04:08:37.177Z,8.61
2019-01-16T04:09:47.249Z,8.68
2019-01-16T04:10:57.363Z,8.67
2019-01-16T04:12:07.429Z,8.64
2019-01-16T04:13:17.573Z,8.65
2019-01-16T04:14:27.637Z,8.71
2019-01-16T04:15:37.239Z,8.76
2019-01-16T04:16:47.296Z,8.69
2019-01-16T04:17:57.124Z,8.79
2019-01-16T04:19:06.936Z,8.77
2019-01-16T04:20:17.024Z,8.82
2019-01-16T04:21:27.141Z,8.79
2019-01-16T04:22:36.950Z,8.82
2019-01-16T04:23:47.033Z,8.79
2019-01-16T04:24:56.625Z,8.82
2019-01-16T04:26:06.867Z,8.76
2019-01-16T04:27:16.942Z,8.86
2019-01-16T04:28:27.011Z,8.83
2019-01-16T04:29:37.063Z,8.8
2019-01-16T04:30:47.178Z,8.79
2019-01-16T04:31:57.265Z,8.8
2019-01-16T04:33:07.188Z,8.9
2019-01-16T04:34:17.276Z,8.85
2019-01-16T04:35:27.342Z,8.87
2019-01-16T04:36:37.418Z,8.76
2019-01-16T04:37:47.491Z,8.83
2019-01-16T04:38:57.816Z,8.76
2019-01-16T04:40:07.990Z,8.79
2019-01-16T04:41:18.097Z,8.9
2019-01-16T04:42:27.907Z,8.87
2019-01-16T04:43:37.989Z,8.74
2019-01-16T04:44:48.039Z,8.89
2019-01-16T04:45:57.679Z,8.82
2019-01-16T04:47:07.768Z,8.87
2019-01-16T04:48:17.828Z,8.76
2019-01-16T04:49:35.096Z,8.76
2019-01-16T04:50:45.156Z,8.79
2019-01-16T04:51:55.227Z,8.77
2019-01-16T04:53:05.050Z,8.74
2019-01-16T04:54:15.130Z,8.76
2019-01-16T04:55:24.944Z,8.69
2019-01-16T04:56:35.052Z,8.8
2019-01-16T04:57:45.105Z,8.74
2019-01-16T04:58:55.237Z,8.79
2019-01-16T05:00:05.635Z,8.8
2019-01-16T05:01:15.800Z,8.86
2019-01-16T05:02:26.119Z,8.69
2019-01-16T05:03:36.219Z,8.86
2019-01-16T05:04:46.283Z,8.82
2019-01-16T05:05:56.343Z,8.8
2019-01-16T05:07:08.112Z,8.77
2019-01-16T05:08:18.231Z,8.69
2019-01-16T05:09:28.282Z,8.82
2019-01-16T05:10:38.089Z,8.74
2019-01-16T05:11:48.148Z,8.82
2019-01-16T05:12:57.978Z,8.8
2019-01-16T05:14:08.139Z,8.77
2019-01-16T05:15:18.332Z,8.77
2019-01-16T05:16:28.478Z,8.77
2019-01-16T05:17:38.512Z,8.77
2019-01-16T05:18:48.615Z,8.68
2019-01-16T05:19:58.765Z,8.64
2019-01-16T05:21:09.387Z,8.61
2019-01-16T05:22:19.437Z,8.67
2019-01-16T05:23:29.540Z,8.6
2019-01-16T05:24:39.601Z,8.53
2019-01-16T05:25:49.656Z,8.43
2019-01-16T05:26:59.472Z,8.47
2019-01-16T05:28:10.763Z,8.44
2019-01-16T05:29:20.819Z,8.46
2019-01-16T05:30:30.955Z,8.39
2019-01-16T05:31:40.764Z,8.42
2019-01-16T05:32:50.578Z,8.53
2019-01-16T05:34:01.367Z,8.43
2019-01-16T05:35:11.347Z,8.39
2019-01-16T05:36:21.406Z,8.43
2019-01-16T05:37:33.062Z,8.44
2019-01-16T05:38:43.383Z,8.36
2019-01-16T05:39:53.478Z,8.42
2019-01-16T05:41:03.536Z,8.36
2019-01-16T05:42:13.767Z,8.4
2019-01-16T05:43:23.875Z,8.34
2019-01-16T05:44:33.691Z,8.34
2019-01-16T05:45:43.819Z,8.32
2019-01-16T05:46:53.875Z,8.31
2019-01-16T05:48:03.970Z,8.25
2019-01-16T05:49:14.030Z,8.28
2019-01-16T05:50:24.106Z,8.28
2019-01-16T05:51:34.178Z,8.26
2019-01-16T05:52:43.717Z,8.26
2019-01-16T05:53:53.015Z,8.21
2019-01-16T05:55:03.087Z,8.29
2019-01-16T05:56:13.153Z,8.25
2019-01-16T05:57:22.994Z,8.36
2019-01-16T05:58:33.041Z,8.28
2019-01-16T05:59:43.096Z,8.31
2019-01-16T06:00:53.142Z,8.36
2019-01-16T06:02:02.989Z,8.4
2019-01-16T06:03:13.124Z,8.46
2019-01-16T06:04:22.994Z,8.5
2019-01-16T06:05:33.056Z,8.4
2019-01-16T06:06:43.131Z,8.49
2019-01-16T06:07:53.199Z,8.43
2019-01-16T06:09:05.740Z,8.47
2019-01-16T06:10:15.847Z,8.58
2019-01-16T06:11:25.950Z,8.49
2019-01-16T06:12:36.011Z,8.43
2019-01-16T06:13:46.064Z,8.43
2019-01-16T06:14:56.418Z,8.49
2019-01-16T06:16:06.431Z,8.6
2019-01-16T06:17:16.649Z,8.61
2019-01-16T06:18:26.698Z,8.57
2019-01-16T06:19:36.742Z,8.68
2019-01-16T06:20:46.804Z,8.6
2019-01-16T06:21:56.873Z,8.65
2019-01-16T06:23:06.948Z,8.67
2019-01-16T06:24:16.741Z,8.69
2019-01-16T06:25:26.585Z,8.65
2019-01-16T06:26:36.431Z,8.69
2019-01-16T06:27:46.515Z,8.74
2019-01-16T06:28:56.814Z,8.72
2019-01-16T06:30:06.625Z,8.76
2019-01-16T06:31:16.442Z,8.69
2019-01-16T06:32:26.550Z,8.71
2019-01-16T06:33:36.363Z,8.76
2019-01-16T06:34:46.445Z,8.72
2019-01-16T06:35:56.553Z,8.79
2019-01-16T06:37:06.386Z,8.76
2019-01-16T06:38:16.239Z,8.77
2019-01-16T06:39:26.054Z,8.8
2019-01-16T06:40:36.177Z,8.77
2019-01-16T06:41:46.336Z,8.77
2019-01-16T06:42:56.400Z,8.76
2019-01-16T06:44:06.508Z,8.8
2019-01-16T06:45:16.566Z,8.79
2019-01-16T06:46:26.691Z,8.82
2019-01-16T06:47:36.478Z,8.8
2019-01-16T06:48:46.532Z,8.72
2019-01-16T06:50:04.102Z,8.89
2019-01-16T06:51:21.769Z,8.87
2019-01-16T06:52:31.880Z,8.87
2019-01-16T06:53:41.748Z,8.9
2019-01-16T06:54:51.814Z,8.86
2019-01-16T06:56:01.866Z,8.94
2019-01-16T06:57:11.664Z,8.92
2019-01-16T06:58:21.498Z,8.9
2019-01-16T06:59:31.330Z,9
2019-01-16T07:00:41.131Z,9
2019-01-16T07:01:50.960Z,9.04
2019-01-16T07:03:01.487Z,9.11
2019-01-16T07:04:11.572Z,9.14
2019-01-16T07:05:21.621Z,9.08
2019-01-16T07:06:31.533Z,9.08
2019-01-16T07:07:41.603Z,9.16
2019-01-16T07:08:51.674Z,9.12
2019-01-16T07:10:01.760Z,9.14
2019-01-16T07:11:11.583Z,9.04
2019-01-16T07:12:21.689Z,9.11
2019-01-16T07:13:31.508Z,9.16
2019-01-16T07:14:41.610Z,9.19
2019-01-16T07:15:51.694Z,9.17
2019-01-16T07:17:01.871Z,9.21
2019-01-16T07:18:11.995Z,9.21
2019-01-16T07:19:21.857Z,9.21
2019-01-16T07:20:31.925Z,9.23
2019-01-16T07:21:41.510Z,9.19
2019-01-16T07:22:51.990Z,9.29
2019-01-16T07:24:02.918Z,9.24
2019-01-16T07:25:12.968Z,9.34
2019-01-16T07:26:23.038Z,9.23
2019-01-16T07:27:32.849Z,9.38
2019-01-16T07:28:42.949Z,9.39
2019-01-16T07:29:53.026Z,9.41
2019-01-16T07:31:05.902Z,9.44
2019-01-16T07:32:15.715Z,9.53
2019-01-16T07:33:25.813Z,9.47
2019-01-16T07:34:35.361Z,9.6
2019-01-16T07:35:45.417Z,9.52
2019-01-16T07:36:55.502Z,9.62
2019-01-16T07:38:07.952Z,9.6
2019-01-16T07:39:18.003Z,9.6
2019-01-16T07:40:28.072Z,9.64
2019-01-16T07:41:38.921Z,9.6
2019-01-16T07:42:51.865Z,9.77
2019-01-16T07:44:02.046Z,9.75
2019-01-16T07:45:11.577Z,9.84
2019-01-16T07:46:21.652Z,9.95
2019-01-16T07:47:31.467Z,9.9
2019-01-16T07:48:41.542Z,10.08
2019-01-16T07:49:51.340Z,10.18
2019-01-16T07:51:01.406Z,10.31
2019-01-16T07:52:11.222Z,10.36
2019-01-16T07:53:21.276Z,10.49
2019-01-16T07:54:31.574Z,10.44
2019-01-16T07:55:41.653Z,10.55
2019-01-16T07:56:51.523Z,10.57
2019-01-16T07:58:01.575Z,10.57
2019-01-16T07:59:11.630Z,10.54
2019-01-16T08:00:29.443Z,10.52
2019-01-16T08:01:39.537Z,10.57
2019-01-16T08:02:49.620Z,10.65
2019-01-16T08:03:59.671Z,10.66
2019-01-16T08:05:09.749Z,10.77
2019-01-16T08:06:19.449Z,10.83
2019-01-16T08:07:29.575Z,10.9
2019-01-16T08:08:39.434Z,10.91
2019-01-16T08:09:49.260Z,10.97
2019-01-16T08:10:59.330Z,10.94
2019-01-16T08:12:09.392Z,10.88
2019-01-16T08:13:19.478Z,10.85
2019-01-16T08:14:29.547Z,10.83
2019-01-16T08:15:39.386Z,10.77
2019-01-16T08:16:49.505Z,10.66
2019-01-16T08:17:59.571Z,10.66
2019-01-16T08:19:11.095Z,10.65
2019-01-16T08:20:27.540Z,10.69
2019-01-16T08:21:37.551Z,10.66
2019-01-16T08:22:47.620Z,10.65
2019-01-16T08:23:57.699Z,10.69
2019-01-16T08:25:08.060Z,10.66
2019-01-16T08:26:30.896Z,10.67
2019-01-16T08:27:41.072Z,10.66
2019-01-16T08:28:51.207Z,10.73
2019-01-16T08:30:02.531Z,10.91
2019-01-16T08:31:12.091Z,10.83
2019-01-16T08:32:22.149Z,10.87
2019-01-16T08:33:32.230Z,10.97
2019-01-16T08:34:42.294Z,10.98
2019-01-16T08:35:52.461Z,11.06
2019-01-16T08:37:01.755Z,11.05
2019-01-16T08:38:12.673Z,11.13
2019-01-16T08:39:22.664Z,11.05
2019-01-16T08:40:32.544Z,11.06
2019-01-16T08:41:42.622Z,11.1
2019-01-16T08:42:52.712Z,11.09
2019-01-16T08:44:05.241Z,11.02
2019-01-16T08:45:21.539Z,10.98
2019-01-16T08:46:31.610Z,11.03
2019-01-16T08:47:41.679Z,10.91
2019-01-16T08:48:51.744Z,10.8
2019-01-16T08:50:03.263Z,10.8
2019-01-16T08:51:13.326Z,10.63
2019-01-16T08:52:23.132Z,10.59
2019-01-16T08:53:32.966Z,10.52
2019-01-16T08:54:42.667Z,10.51
2019-01-16T08:55:52.460Z,10.41
2019-01-16T08:57:02.954Z,10.36
2019-01-16T08:58:13.073Z,10.33
2019-01-16T08:59:23.130Z,10.31
2019-01-16T09:00:32.999Z,10.29
2019-01-16T09:01:43.085Z,10.35
2019-01-16T09:02:53.154Z,10.21
2019-01-16T09:04:03.234Z,10.29
2019-01-16T09:05:12.891Z,10.29
2019-01-16T09:06:22.715Z,10.31
2019-01-16T09:07:32.776Z,10.41
2019-01-16T09:08:42.854Z,10.52
2019-01-16T09:09:52.663Z,10.66
2019-01-16T09:11:02.530Z,10.7
2019-01-16T09:12:12.346Z,10.8
2019-01-16T09:13:22.219Z,10.88
2019-01-16T09:14:32.038Z,10.88
2019-01-16T09:15:41.598Z,10.85
2019-01-16T09:16:51.733Z,11
2019-01-16T09:18:03.011Z,11.18
2019-01-16T09:19:12.569Z,11.41
2019-01-16T09:20:22.623Z,11.91
2019-01-16T09:21:32.695Z,12.44
2019-01-16T09:22:42.850Z,12.58
2019-01-16T09:23:52.938Z,12.59
2019-01-16T09:25:03.878Z,12.7
2019-01-16T09:26:14.142Z,13.35
2019-01-16T09:27:24.214Z,13.94
2019-01-16T09:28:34.336Z,14.59
2019-01-16T09:29:44.407Z,14.86
2019-01-16T09:30:54.251Z,15
2019-01-16T09:32:05.765Z,14.94
2019-01-16T09:33:15.887Z,14.95
2019-01-16T09:34:26.055Z,15.2
2019-01-16T09:35:35.851Z,15.1
2019-01-16T09:36:45.936Z,15.25
2019-01-16T09:37:56.029Z,15.01
2019-01-16T09:39:05.868Z,14.41
2019-01-16T09:40:16.004Z,13.93
2019-01-16T09:41:26.361Z,13.75
2019-01-16T09:42:36.173Z,13.93
2019-01-16T09:43:46.241Z,14.03
2019-01-16T09:44:56.518Z,13.97
2019-01-16T09:46:06.114Z,13.62
2019-01-16T09:47:15.916Z,13.42
2019-01-16T09:48:25.976Z,13.24
2019-01-16T09:49:36.243Z,13.11
2019-01-16T09:50:52.752Z,13.02
2019-01-16T09:52:02.573Z,13.03
2019-01-16T09:53:12.667Z,12.96
2019-01-16T09:54:22.522Z,12.88
2019-01-16T09:55:32.634Z,12.77
2019-01-16T09:56:42.740Z,12.66
2019-01-16T09:57:52.344Z,12.76
2019-01-16T09:59:02.194Z,12.73
2019-01-16T10:00:12.805Z,12.65
2019-01-16T10:01:23.463Z,12.61
2019-01-16T10:02:33.555Z,12.77
2019-01-16T10:03:43.654Z,12.77
2019-01-16T10:04:53.458Z,12.55
2019-01-16T10:06:07.036Z,12.59
2019-01-16T10:07:17.132Z,12.58
2019-01-16T10:08:26.703Z,12.61
2019-01-16T10:09:36.839Z,12.53
2019-01-16T10:10:46.912Z,12.36
2019-01-16T10:11:57.000Z,12.34
2019-01-16T10:13:07.091Z,12.23
2019-01-16T10:14:16.908Z,12.34
2019-01-16T10:15:26.762Z,12.25
2019-01-16T10:16:36.845Z,12.37
2019-01-16T10:17:46.936Z,12.37
2019-01-16T10:18:56.810Z,12.44
2019-01-16T10:20:06.883Z,12.26
2019-01-16T10:21:16.954Z,12.23
2019-01-16T10:22:27.066Z,12.34
2019-01-16T10:23:37.201Z,12.34
2019-01-16T10:24:47.275Z,12.23
2019-01-16T10:25:57.335Z,12.13
2019-01-16T10:27:07.128Z,12.15
2019-01-16T10:28:16.948Z,12.13
2019-01-16T10:29:27.005Z,12.13
2019-01-16T10:30:36.857Z,12.13
2019-01-16T10:31:46.944Z,12.19
2019-01-16T10:32:56.815Z,12.22
2019-01-16T10:34:06.870Z,12.23
2019-01-16T10:35:16.962Z,12.28
2019-01-16T10:36:27.035Z,12.25
2019-01-16T10:37:37.115Z,12.18
2019-01-16T10:38:47.212Z,12.22
2019-01-16T10:39:57.055Z,12.33
2019-01-16T10:41:08.972Z,12.33
2019-01-16T10:42:19.065Z,12.37
2019-01-16T10:43:29.147Z,12.33
2019-01-16T10:44:39.227Z,12.43
2019-01-16T10:45:49.284Z,12.47
2019-01-16T10:46:59.416Z,12.56
2019-01-16T10:48:09.483Z,12.58
2019-01-16T10:49:19.575Z,12.61
2019-01-16T10:50:29.414Z,12.7
2019-01-16T10:51:39.485Z,12.77
2019-01-16T10:52:49.576Z,12.88
2019-01-16T10:54:00.165Z,12.89
2019-01-16T10:55:10.262Z,12.99
2019-01-16T10:56:20.350Z,13.06
2019-01-16T10:57:31.841Z,13.11
2019-01-16T10:58:41.909Z,13.14
2019-01-16T10:59:51.975Z,13.19
2019-01-16T11:01:02.049Z,13.2
2019-01-16T11:02:12.137Z,13.2
2019-01-16T11:03:22.236Z,13.2
2019-01-16T11:04:32.052Z,13.2
2019-01-16T11:05:42.334Z,13.2
2019-01-16T11:06:52.285Z,13.21
2019-01-16T11:08:03.929Z,13.28
2019-01-16T11:09:13.739Z,13.31
2019-01-16T11:10:24.541Z,13.31
2019-01-16T11:11:35.333Z,13.44
2019-01-16T11:12:45.446Z,13.32
2019-01-16T11:13:55.554Z,13.47
2019-01-16T11:15:05.635Z,13.58
2019-01-16T11:16:15.927Z,13.58
2019-01-16T11:17:26.320Z,13.63
2019-01-16T11:18:36.343Z,13.69
2019-01-16T11:19:46.660Z,13.76
2019-01-16T11:20:56.738Z,13.78
2019-01-16T11:22:06.816Z,13.76
2019-01-16T11:23:16.913Z,13.79
2019-01-16T11:24:26.996Z,13.75
2019-01-16T11:25:37.103Z,13.65
2019-01-16T11:26:47.285Z,13.65
2019-01-16T11:27:57.344Z,13.65
2019-01-16T11:29:08.737Z,13.58
2019-01-16T11:30:18.820Z,13.58
2019-01-16T11:31:29.387Z,13.5
2019-01-16T11:32:39.221Z,13.48
2019-01-16T11:33:49.026Z,13.39
2019-01-16T11:34:59.100Z,13.25
2019-01-16T11:36:09.162Z,13.25
2019-01-16T11:37:19.246Z,13.24
2019-01-16T11:38:29.312Z,13.17
2019-01-16T11:39:39.420Z,13.17
2019-01-16T11:40:50.813Z,13.11
2019-01-16T11:42:01.399Z,13.01
2019-01-16T11:43:11.448Z,13.02
2019-01-16T11:44:21.507Z,13.01
2019-01-16T11:45:31.564Z,12.92
2019-01-16T11:46:41.633Z,12.89
2019-01-16T11:47:51.701Z,13.02
2019-01-16T11:49:01.725Z,12.89
2019-01-16T11:50:11.850Z,12.86
2019-01-16T11:51:23.924Z,12.88
2019-01-16T11:52:41.300Z,12.8
2019-01-16T11:53:51.374Z,12.74
2019-01-16T11:55:01.502Z,12.83
2019-01-16T11:56:11.573Z,12.81
2019-01-16T11:57:21.741Z,12.78
2019-01-16T11:58:31.801Z,12.86
2019-01-16T11:59:41.357Z,12.96
2019-01-16T12:00:51.406Z,13.09
2019-01-16T12:02:01.480Z,13.07
2019-01-16T12:03:11.561Z,13.1
2019-01-16T12:04:21.360Z,13.1
2019-01-16T12:05:31.531Z,13.01
2019-01-16T12:06:41.333Z,13.02
2019-01-16T12:07:51.425Z,12.91
2019-01-16T12:09:01.530Z,12.89
2019-01-16T12:10:11.585Z,12.81
2019-01-16T12:11:21.760Z,12.77
2019-01-16T12:12:31.648Z,12.61
2019-01-16T12:13:41.712Z,12.48
2019-01-16T12:14:51.767Z,12.52
2019-01-16T12:16:01.816Z,12.52
2019-01-16T12:17:11.429Z,12.53
2019-01-16T12:18:21.493Z,12.59
2019-01-16T12:19:31.286Z,12.62
2019-01-16T12:20:41.355Z,12.58
2019-01-16T12:21:51.421Z,12.59
2019-01-16T12:23:01.523Z,12.56
2019-01-16T12:24:11.643Z,12.62
2019-01-16T12:25:21.702Z,12.61
2019-01-16T12:26:31.758Z,12.62
2019-01-16T12:27:41.827Z,12.62
2019-01-16T12:28:52.096Z,12.73
2019-01-16T12:30:02.174Z,12.66
2019-01-16T12:31:12.474Z,12.86
2019-01-16T12:32:22.577Z,12.92
2019-01-16T12:33:32.650Z,12.88
2019-01-16T12:34:42.706Z,12.92
2019-01-16T12:35:52.842Z,12.91
2019-01-16T12:37:02.978Z,12.98
2019-01-16T12:38:13.155Z,12.89
2019-01-16T12:39:23.231Z,12.7
2019-01-16T12:40:33.039Z,12.59
2019-01-16T12:41:42.862Z,12.58
2019-01-16T12:42:52.669Z,12.62
2019-01-16T12:44:02.758Z,12.53
2019-01-16T12:45:12.856Z,12.56
2019-01-16T12:46:23.096Z,12.55
2019-01-16T12:47:33.825Z,12.74
2019-01-16T12:48:43.904Z,13.39
2019-01-16T12:49:54.023Z,13.87
2019-01-16T12:51:04.204Z,14.33
2019-01-16T12:52:14.286Z,14.66
2019-01-16T12:53:24.352Z,14.67
2019-01-16T12:54:34.412Z,14.59
2019-01-16T12:55:44.493Z,14.33
2019-01-16T12:56:54.562Z,14.19
2019-01-16T12:58:05.177Z,13.97
2019-01-16T12:59:21.217Z,13.79
2019-01-16T13:00:31.280Z,13.73
2019-01-16T13:01:41.353Z,13.63
2019-01-16T13:02:51.440Z,13.58
2019-01-16T13:04:01.509Z,13.53
2019-01-16T13:05:11.619Z,13.51
2019-01-16T13:06:21.428Z,13.54
2019-01-16T13:07:32.565Z,13.58
2019-01-16T13:08:43.670Z,13.54
2019-01-16T13:09:53.731Z,13.51
2019-01-16T13:11:03.805Z,13.28
2019-01-16T13:12:13.928Z,13.14
2019-01-16T13:13:24.030Z,13.09
2019-01-16T13:14:35.084Z,13.06
2019-01-16T13:15:45.380Z,13.09
2019-01-16T13:16:55.473Z,13.09
2019-01-16T13:18:08.267Z,13.17
2019-01-16T13:19:18.639Z,13.17
2019-01-16T13:20:29.001Z,13.14
2019-01-16T13:21:44.630Z,13.11
2019-01-16T13:22:54.771Z,12.99
2019-01-16T13:24:04.875Z,12.91
2019-01-16T13:25:15.355Z,12.8
2019-01-16T13:26:25.426Z,12.74
2019-01-16T13:27:35.455Z,12.77
2019-01-16T13:28:45.016Z,12.76
2019-01-16T13:29:55.337Z,12.59
2019-01-16T13:31:05.539Z,12.56
2019-01-16T13:32:15.656Z,12.56
2019-01-16T13:33:26.019Z,12.58
2019-01-16T13:34:36.114Z,12.44
2019-01-16T13:35:46.370Z,12.55
2019-01-16T13:36:56.494Z,12.53
2019-01-16T13:38:06.584Z,12.58
2019-01-16T13:39:16.318Z,12.53
2019-01-16T13:40:26.486Z,12.51
2019-01-16T13:41:36.538Z,12.61
2019-01-16T13:42:46.588Z,12.56
2019-01-16T13:43:57.316Z,12.61
2019-01-16T13:45:07.453Z,12.62
2019-01-16T13:46:17.521Z,12.58
2019-01-16T13:47:27.649Z,12.55
2019-01-16T13:48:37.811Z,12.59
2019-01-16T13:49:47.969Z,12.47
2019-01-16T13:50:58.095Z,12.44
2019-01-16T13:52:08.183Z,12.44
2019-01-16T13:53:24.125Z,12.31
2019-01-16T13:54:34.223Z,12.34
2019-01-16T13:55:44.768Z,12.19
2019-01-16T13:56:54.573Z,12.31
2019-01-16T13:58:04.634Z,12.22
2019-01-16T13:59:14.697Z,12.37
2019-01-16T14:00:25.074Z,12.33
2019-01-16T14:01:35.144Z,12.38
2019-01-16T14:02:45.394Z,12.43
2019-01-16T14:03:55.451Z,12.52
2019-01-16T14:05:07.038Z,12.56
2019-01-16T14:06:16.854Z,12.59
2019-01-16T14:07:26.661Z,12.71
2019-01-16T14:08:36.577Z,12.81
2019-01-16T14:09:46.187Z,12.88
2019-01-16T14:10:56.299Z,13.11
2019-01-16T14:12:06.433Z,13.2
2019-01-16T14:13:16.540Z,13.28
2019-01-16T14:14:26.603Z,13.27
2019-01-16T14:15:36.675Z,13.37
2019-01-16T14:16:46.735Z,13.25
2019-01-16T14:17:56.341Z,13.32
2019-01-16T14:19:08.606Z,13.16
2019-01-16T14:20:18.846Z,13.16
2019-01-16T14:21:28.935Z,13.09
2019-01-16T14:22:39.033Z,13.07
2019-01-16T14:23:48.839Z,13.03
2019-01-16T14:24:58.923Z,12.98
2019-01-16T14:26:08.829Z,12.98
2019-01-16T14:27:18.913Z,13.03
2019-01-16T14:28:28.764Z,12.99
2019-01-16T14:29:38.924Z,12.99
2019-01-16T14:30:49.430Z,12.8
2019-01-16T14:32:00.189Z,12.84
2019-01-16T14:33:10.665Z,12.74
2019-01-16T14:34:21.819Z,12.59
2019-01-16T14:35:32.387Z,12.51
2019-01-16T14:36:43.207Z,12.53
2019-01-16T14:37:53.425Z,12.44
2019-01-16T14:39:05.807Z,12.38
2019-01-16T14:40:15.981Z,12.33
2019-01-16T14:41:26.242Z,12.25
2019-01-16T14:42:36.531Z,12.2
2019-01-16T14:43:47.007Z,12.19
2019-01-16T14:44:56.993Z,12.08
2019-01-16T14:46:06.930Z,11.94
2019-01-16T14:47:17.313Z,11.82
2019-01-16T14:48:27.591Z,11.73
2019-01-16T14:49:37.571Z,11.71
2019-01-16T14:50:47.666Z,11.67
2019-01-16T14:52:04.467Z,11.61
2019-01-16T14:53:14.653Z,11.49
2019-01-16T14:54:24.795Z,11.39
2019-01-16T14:55:34.980Z,11.38
2019-01-16T14:56:45.104Z,11.23
2019-01-16T14:57:54.995Z,11.2
2019-01-16T14:59:08.263Z,11.06
2019-01-16T15:00:18.828Z,11.1
2019-01-16T15:01:28.968Z,11
2019-01-16T15:02:39.159Z,10.98
2019-01-16T15:03:49.648Z,10.9
2019-01-16T15:04:59.829Z,10.85
2019-01-16T15:06:10.201Z,10.79
2019-01-16T15:07:20.870Z,10.66
2019-01-16T15:08:31.089Z,10.65
2019-01-16T15:09:41.263Z,10.63
2019-01-16T15:10:51.523Z,10.52
2019-01-16T15:12:01.378Z,10.41
2019-01-16T15:13:11.564Z,10.42
2019-01-16T15:14:22.911Z,10.32
2019-01-16T15:15:32.907Z,10.26
2019-01-16T15:16:43.008Z,10.28
2019-01-16T15:17:53.286Z,10.11
2019-01-16T15:19:03.553Z,10.21
2019-01-16T15:20:13.682Z,10.2
2019-01-16T15:21:23.937Z,10.13
2019-01-16T15:22:33.899Z,10.17
2019-01-16T15:23:44.048Z,9.99
2019-01-16T15:24:54.298Z,10.05
2019-01-16T15:26:04.472Z,9.93
2019-01-16T15:27:14.586Z,10.05
2019-01-16T15:28:24.695Z,9.92
2019-01-16T15:29:34.544Z,10.02
2019-01-16T15:30:44.796Z,9.98
2019-01-16T15:31:54.659Z,9.99
2019-01-16T15:33:04.500Z,9.99
2019-01-16T15:34:14.597Z,10.03
2019-01-16T15:35:24.691Z,9.99
2019-01-16T15:36:34.870Z,9.96
2019-01-16T15:37:46.244Z,9.89
2019-01-16T15:38:56.372Z,9.9
2019-01-16T15:40:08.496Z,9.81
2019-01-16T15:41:18.793Z,9.92
2019-01-16T15:42:28.853Z,9.9
2019-01-16T15:43:38.933Z,9.85
2019-01-16T15:44:49.030Z,9.85
2019-01-16T15:45:58.839Z,9.85
2019-01-16T15:47:08.761Z,9.74
2019-01-16T15:48:18.916Z,9.64
2019-01-16T15:49:28.976Z,9.63
2019-01-16T15:50:39.029Z,9.59
2019-01-16T15:51:49.121Z,9.48
2019-01-16T15:52:59.183Z,9.53
2019-01-16T15:54:09.295Z,9.5